DADOS DO TEMPO

ONTEM
Time Temp. Dewp. Hum. Bar. 1h Prec. 24h Prec.
00:05 13.9 12.3 90 1016.9 0.0000 0.0000
00:16 13.9 12.3 90 1016.9 0.0000 0.0000
00:26 13.8 12.2 90 1016.9 0.0000 0.0000
00:35 13.8 12.2 90 1016.9 0.0000 0.0000
00:45 13.8 12.2 90 1016.8 0.0000 0.0000
00:56 13.8 12.4 91 1016.8 0.0000 0.0000
01:06 13.9 12.5 91 1016.8 0.0000 0.0000
01:16 13.9 12.5 91 1016.7 0.0000 0.0000
01:26 14 12.6 91 1016.7 0.0000 0.0000
01:36 14.2 12.6 90 1016.6 0.0000 0.0000
01:46 14.2 12.6 90 1016.6 0.0000 0.0000
01:56 14.2 12.6 90 1016.6 0.0000 0.0000
02:06 14.2 12.6 90 1016.6 0.0000 0.0000
02:16 14.2 12.6 90 1016.6 0.0000 0.0000
02:26 14.2 12.6 90 1016.5 0.0000 0.0000
02:37 14.2 12.6 90 1016.5 0.0000 0.0000
02:47 14.2 12.6 90 1016.5 0.0000 0.0000
02:56 14.2 12.6 90 1016.4 0.0000 0.0000
03:06 14.1 12.7 91 1016.4 0.0000 0.0000
03:17 14.2 12.6 90 1016.4 0.0000 0.0000
03:27 14.2 12.6 90 1016.5 0.0000 0.0000
03:37 14.2 12.6 90 1016.4 0.0000 0.0000
03:47 14.2 12.6 90 1016.5 0.0000 0.0000
03:57 14.2 12.6 90 1016.4 0.0000 0.0000
04:07 14.2 12.6 90 1016.4 0.0000 0.0000
04:17 14.2 12.4 89 1016.3 0.0000 0.0000
04:27 14.2 12.4 89 1016.2 0.0000 0.0000
04:37 14.2 12.4 89 1016.1 0.0000 0.0000
04:47 14.1 12.3 89 1016.1 0.0000 0.0000
04:57 14.1 12.3 89 1016 0.0000 0.0000
05:08 14 12.4 90 1015.9 0.0000 0.0000
05:17 14 12.4 90 1015.9 0.0000 0.0000
05:27 14 12.4 90 1015.9 0.0000 0.0000
05:38 14 12.2 89 1015.9 0.0000 0.0000
05:48 14 12.2 89 1016 0.0000 0.0000
05:57 14 12.2 89 1015.9 0.0000 0.0000
06:08 14 12 88 1015.9 0.0000 0.0000
06:18 14 12 88 1015.9 0.0000 0.0000
06:28 14 12 88 1016 0.0000 0.0000
06:38 14 12 88 1016.1 0.0000 0.0000
06:48 14 12 88 1016.1 0.0000 0.0000
06:58 14 12 88 1016.1 0.0000 0.0000
07:08 13.9 11.8 87 1016.1 0.0000 0.0000
07:18 13.9 11.6 86 1016.1 0.0000 0.0000
07:28 13.8 11.5 86 1016.1 0.0000 0.0000
07:38 13.8 11.5 86 1016.1 0.0000 0.0000
07:48 13.8 11.3 85 1016.1 0.0000 0.0000
07:59 13.7 11.2 85 1016.1 0.0000 0.0000
08:09 13.7 11 84 1016.3 0.0000 0.0000
08:18 13.7 11 84 1016.3 0.0000 0.0000
08:29 13.7 10.9 83 1016.3 0.0000 0.0000
08:39 13.7 10.9 83 1016.3 0.0000 0.0000
08:49 13.7 10.9 83 1016.3 0.0000 0.0000
08:58 13.7 10.7 82 1016.3 0.0000 0.0000
09:09 13.8 10.8 82 1016.2 0.0000 0.0000
09:19 14 10.8 81 1016.2 0.0000 0.0000
09:29 14.2 10.8 80 1016.2 0.0000 0.0000
09:39 14.3 10.7 79 1016.4 0.0000 0.0000
09:49 14.4 10.8 79 1016.5 0.0000 0.0000
09:59 14.5 10.7 78 1016.6 0.0000 0.0000
10:09 14.6 10.8 78 1016.6 0.0000 0.0000
10:20 14.6 10.4 76 1016.7 0.0000 0.0000
10:30 14.7 10.7 77 1016.7 0.0000 0.0000
10:39 14.8 10.8 77 1016.7 0.0000 0.0000
10:50 14.8 10.2 74 1016.7 0.0000 0.0000
11:00 14.8 10.2 74 1016.7 0.0000 0.0000
11:10 14.9 10.3 74 1016.8 0.0000 0.0000
11:19 14.9 9.9 72 1016.9 0.0000 0.0000
11:30 14.9 9.7 71 1017 0.0000 0.0000
11:40 14.9 9.9 72 1017.2 0.0000 0.0000
11:50 15.1 10.1 72 1017.3 0.0000 0.0000
12:00 15.1 10.1 72 1017.3 0.0000 0.0000
12:10 15.1 9.9 71 1017.4 0.0000 0.0000
12:20 14.9 9.5 70 1017.4 0.0000 0.0000
12:30 14.9 9.9 72 1017.5 0.0000 0.0000
12:41 14.9 9.5 70 1017.5 0.0000 0.0000
12:50 14.7 9.3 70 1017.4 0.0000 0.0000
13:00 14.6 9.4 71 1017.3 0.0000 0.0000
13:11 14.5 9.3 71 1017.4 0.0000 0.0000
13:21 14.4 9 70 1017.3 0.0000 0.0000
13:31 14.3 8.9 70 1017.3 0.0000 0.0000
13:40 14.4 9 70 1017.2 0.0000 0.0000
13:51 14.4 9.2 71 1017.2 0.0000 0.0000
14:01 14.5 9.1 70 1017.1 0.0000 0.0000
14:11 14.4 9 70 1017.2 0.0000 0.0000
14:21 14.3 8.9 70 1017.1 0.0000 0.0000
14:31 14.3 8.9 70 1017 0.0000 0.0000
14:41 14.3 9.1 71 1017 0.0000 0.0000
14:51 14.3 9.1 71 1017 0.0000 0.0000
15:02 14.3 9.1 71 1016.9 0.0000 0.0000
15:11 14.4 9.4 72 1016.9 0.0000 0.0000
15:21 14.4 9 70 1016.9 0.0000 0.0000
15:32 14.4 9 70 1016.7 0.0000 0.0000
15:42 14.4 9 70 1016.7 0.0000 0.0000
15:51 14.4 8.8 69 1016.8 0.0000 0.0000
16:01 14.3 8.5 68 1016.8 0.0000 0.0000
16:12 14.3 8.5 68 1016.8 0.0000 0.0000
16:22 14.3 8.7 69 1016.8 0.0000 0.0000
16:32 14.3 8.7 69 1016.8 0.0000 0.0000
16:42 14.3 8.9 70 1016.9 0.0000 0.0000
16:52 14.2 8.8 70 1016.9 0.0000 0.0000
17:02 14 8.6 70 1016.8 0.0000 0.0000
17:12 14 8.6 70 1016.7 0.0000 0.0000
17:23 14 8.6 70 1016.7 0.0000 0.0000
17:32 13.9 8.5 70 1016.6 0.0000 0.0000
17:42 13.8 8.4 70 1016.7 0.0000 0.0000
17:53 13.8 8.2 69 1016.8 0.0000 0.0000
18:03 13.7 8.1 69 1016.9 0.0000 0.0000
18:12 13.7 8.1 69 1017 0.0000 0.0000
18:22 13.6 8.4 71 1016.9 0.0000 0.0000
18:33 13.6 8.2 70 1017 0.0000 0.0000
18:43 13.5 8.1 70 1017 0.0000 0.0000
18:53 13.4 8 70 1017.1 0.0000 0.0000
19:03 13.3 8 70 1017.2 0.0000 0.0000
19:13 13.3 8.2 71 1017.2 0.0000 0.0000
19:23 13.2 8.1 71 1017.3 0.0000 0.0000
19:33 13.1 8.2 72 1017.4 0.0000 0.0000
19:44 13 8.5 74 1017.5 0.0000 0.0000
19:53 13 8.7 75 1017.6 0.0000 0.0000
20:03 12.9 8.6 75 1017.7 0.0000 0.0000
20:14 12.8 8.7 76 1017.7 0.0000 0.0000
20:24 12.7 8.8 77 1017.7 0.0000 0.0000
20:33 12.6 8.7 77 1017.8 0.0000 0.0000
20:43 12.5 8.8 78 1017.9 0.0000 0.0000
20:54 12.5 9 79 1017.9 0.0000 0.0000
21:04 12.4 8.9 79 1017.9 0.0000 0.0000
21:14 12.4 9.1 80 1017.7 0.0000 0.0000
21:24 12.3 9 80 1017.7 0.0000 0.0000
21:34 12.2 8.9 80 1017.7 0.0000 0.0000
21:44 12.2 8.9 80 1017.7 0.0000 0.0000
21:54 12.1 8.8 80 1017.7 0.0000 0.0000
22:04 12.1 8.9 81 1017.9 0.0000 0.0000
22:14 11.9 8.6 80 1017.9 0.0000 0.0000
22:24 11.7 8.4 80 1017.8 0.0000 0.0000
22:35 11.5 8.4 81 1018.1 0.0000 0.0000
22:45 11.4 8.3 81 1018.1 0.0000 0.0000
22:54 11.3 8.3 82 1018.2 0.0000 0.0000
23:04 11.2 8.1 81 1018.2 0.0000 0.0000
23:15 11 8 82 1018.2 0.0000 0.0000
23:25 10.8 7.9 82 1018.3 0.0000 0.0000
23:34 10.7 7.8 82 1018.3 0.0000 0.0000
23:45 10.5 7.6 82 1018.3 0.0000 0.0000
23:55 10.3 7.4 82 1018.3 0.0000 0.0000

ESTATÍSTICAS DO DIA

2021-09-19
TEMPERATURA
MÉDIA
13.7
MÁXIMO
15.1
11:50
MÍNIMO
10.3
23:55
PRESSÃO
MÉDIA
1016.9
MÁXIMO
1018.3
23:25
MÍNIMO
1015.9
05:08
PONTO DE ORVALHO
MÉDIA
10.2
MÁXIMO
12.7
03:06
MÍNIMO
7.4
23:55
UMIDADE
MÉDIA
80
MÁXIMO
91
00:56
MÍNIMO
68
16:01
PRECIPITAÇÃO
PRECIPITAÇÃO HORÁRIA
0.0
PRECIPITAÇÃO DIÁRIA
0.0
TEMPERATURA (°C)
MÍNIMO
10.3
MÁXIMO
15.1
MÉDIA
13.7
PRESSÃO (hpa)
MÍNIMO
1015.9
MÁXIMO
1018.3
MÉDIA
1016.9
DEVICE